Steveston Lifeboat — VOQQ — position and weather

sailwx.info

Track history (hours):
 
Tides and Currents Weather Stations Pressure Air Temp Water Temp Dewpoint Dewpoint Depression Visibility Wind Speed Wind Dir Waves Ship Positions

Steveston Lifeboat

Last reported at 2018-Jun-09 20:16 UTC. Time now 2018-Jun-25 05:46 UTC.
Position N 49°06' W 123°09'.
Warning: this ship's position is 15 days out of date.

Length 14 m.

Type: . MMSI: 316012135.

Date/timePositionNaut miles runAvg speedWind from/ knotsBaromVisibWave heightAir tempDewpointWater temp
2018-Jun-09 20:16N 49°06' W 123°09'1 2.6
2018-Jun-09 19:49N 49°07' W 123°07'3 9.4
2018-Jun-09 19:30N 49°08' W 123°03'510.0
2018-Jun-09 19:00N 49°10' W 122°56'3 5.9
2018-Jun-09 18:30N 49°09' W 123°01'3 6.1
2018-Jun-09 17:59N 49°07' W 123°05'3 4.1
2018-Jun-09 17:14N 49°06' W 123°09'11 0.5
2018-Jun-08 20:55N 49°17' W 123°11'3 6.1
2018-Jun-08 20:25N 49°18' W 123°07'4 8.4
2018-Jun-08 20:00N 49°18' W 123°01'3 6.7
2018-Jun-08 19:30N 49°19' W 122°57'4 8.5
2018-Jun-08 18:59N 49°22' W 122°53'0 0.0
2018-Jun-06 19:35N 49°23' W 122°53'2 8.9
2018-Jun-06 19:21N 49°21' W 122°54'4 8.3
2018-Jun-06 18:54N 49°18' W 122°57'4 7.7
2018-Jun-06 18:26N 49°18' W 123°03'6 0.4
2018-Jun-06 04:26N 49°16' W 123°11'11 1.9
2018-Jun-05 22:51N 49°06' W 123°09'2 5.3
2018-Jun-05 22:27N 49°06' W 123°05'0 0.6
2018-Jun-05 22:00N 49°05' W 123°06'2 4.7
2018-Jun-05 21:30N 49°06' W 123°09'2 4.5
2018-Jun-05 21:00N 49°07' W 123°12'5 8.1
2018-Jun-05 20:25N 49°07' W 123°05'26 0.5
2018-Jun-03 18:28N 49°15' W 123°43'2 3.8
2018-Jun-03 17:54N 49°14' W 123°46'3 6.4
2018-Jun-03 17:30N 49°14' W 123°50'2 4.6
2018-Jun-03 17:00N 49°13' W 123°53'0 0.1
2018-Jun-03 16:30N 49°13' W 123°53'0 0.0
2018-Jun-03 16:00N 49°13' W 123°53'3 5.7
2018-Jun-03 15:29N 49°11' W 123°56'0 0.0
2018-Jun-03 01:35N 49°11' W 123°56'0 2.2
2018-Jun-03 01:30N 49°11' W 123°56'2 4.9
2018-Jun-03 01:00N 49°13' W 123°54'1 1.2
2018-Jun-03 00:30N 49°13' W 123°53'0 0.0
2018-Jun-02 23:59N 49°13' W 123°53'0 0.0
2018-Jun-02 23:29N 49°13' W 123°53'0 0.0
2018-Jun-02 22:59N 49°13' W 123°53'0 0.0
2018-Jun-02 22:26N 49°13' W 123°53'0 0.0
2018-Jun-02 21:56N 49°13' W 123°53'0 0.0
2018-Jun-02 21:29N 49°13' W 123°53'0 0.0
2018-Jun-02 21:00N 49°13' W 123°53'  
Track history (hours):
 
Tides and Currents Weather Stations Pressure Air Temp Water Temp Dewpoint Dewpoint Depression Visibility Wind Speed Wind Dir Waves Ship Positions

Steveston Lifeboat

Last reported at 2018-Jun-09 20:16 UTC. Time now 2018-Jun-25 05:46 UTC.
Position N 49°06' W 123°09'.
Warning: this ship's position is 15 days out of date.

Length 14 m.

Type: . MMSI: 316012135.

Date/timePositionNaut miles runAvg speedWind from/ knotsBaromVisibWave heightAir tempDewpointWater temp
2018-Jun-09 20:16N 49°06' W 123°09'1 2.6
2018-Jun-09 19:49N 49°07' W 123°07'3 9.4
2018-Jun-09 19:30N 49°08' W 123°03'510.0
2018-Jun-09 19:00N 49°10' W 122°56'3 5.9
2018-Jun-09 18:30N 49°09' W 123°01'3 6.1
2018-Jun-09 17:59N 49°07' W 123°05'3 4.1
2018-Jun-09 17:14N 49°06' W 123°09'11 0.5
2018-Jun-08 20:55N 49°17' W 123°11'3 6.1
2018-Jun-08 20:25N 49°18' W 123°07'4 8.4
2018-Jun-08 20:00N 49°18' W 123°01'3 6.7
2018-Jun-08 19:30N 49°19' W 122°57'4 8.5
2018-Jun-08 18:59N 49°22' W 122°53'0 0.0
2018-Jun-06 19:35N 49°23' W 122°53'2 8.9
2018-Jun-06 19:21N 49°21' W 122°54'4 8.3
2018-Jun-06 18:54N 49°18' W 122°57'4 7.7
2018-Jun-06 18:26N 49°18' W 123°03'6 0.4
2018-Jun-06 04:26N 49°16' W 123°11'11 1.9
2018-Jun-05 22:51N 49°06' W 123°09'2 5.3
2018-Jun-05 22:27N 49°06' W 123°05'0 0.6
2018-Jun-05 22:00N 49°05' W 123°06'2 4.7
2018-Jun-05 21:30N 49°06' W 123°09'2 4.5
2018-Jun-05 21:00N 49°07' W 123°12'5 8.1
2018-Jun-05 20:25N 49°07' W 123°05'26 0.5
2018-Jun-03 18:28N 49°15' W 123°43'2 3.8
2018-Jun-03 17:54N 49°14' W 123°46'3 6.4
2018-Jun-03 17:30N 49°14' W 123°50'2 4.6
2018-Jun-03 17:00N 49°13' W 123°53'0 0.1
2018-Jun-03 16:30N 49°13' W 123°53'0 0.0
2018-Jun-03 16:00N 49°13' W 123°53'3 5.7
2018-Jun-03 15:29N 49°11' W 123°56'0 0.0
2018-Jun-03 01:35N 49°11' W 123°56'0 2.2
2018-Jun-03 01:30N 49°11' W 123°56'2 4.9
2018-Jun-03 01:00N 49°13' W 123°54'1 1.2
2018-Jun-03 00:30N 49°13' W 123°53'0 0.0
2018-Jun-02 23:59N 49°13' W 123°53'0 0.0
2018-Jun-02 23:29N 49°13' W 123°53'0 0.0
2018-Jun-02 22:59N 49°13' W 123°53'0 0.0
2018-Jun-02 22:26N 49°13' W 123°53'0 0.0
2018-Jun-02 21:56N 49°13' W 123°53'0 0.0
2018-Jun-02 21:29N 49°13' W 123°53'0 0.0
2018-Jun-02 21:00N 49°13' W 123°53'  

Dump ship's entire track history